Time;durP1;ratioP1;P1;durP2;ratioP2;P2;SDS_P1;SDS_P2;PMS_P1;PMS_P2;Temp;Humidity;BMP_temperature;BMP_pressure;BME280_temperature;BME280_humidity;BME280_pressure;Samples;Min_cycle;Max_cycle;Signal;HPM_P1;HPM_P2
2021/06/28 00:01:27;;;;;;;;;11.00;10.00;;;;;24.34;48.73;98540.25;4856153;28;101784;-86
2021/06/28 00:04:09;;;;;;;;;10.00;8.00;;;;;24.38;49.14;98543.25;4862774;28;102785;-83
2021/06/28 00:06:50;;;;;;;;;11.00;9.50;;;;;24.31;48.58;98532.56;5175281;23;103507;-86
2021/06/28 00:09:37;;;;;;;;;10.67;10.00;;;;;24.43;48.70;98546.78;4855613;28;111085;-84
2021/06/28 00:12:25;;;;;;;;;10.33;9.33;;;;;24.41;48.59;98549.00;5153062;23;103148;-85
2021/06/28 00:15:16;;;;;;;;;11.00;11.00;;;;;24.32;48.41;98527.81;4878951;28;102380;-85
2021/06/28 00:18:06;;;;;;;;;13.00;10.00;;;;;24.36;48.34;98548.28;4925768;23;102448;-86
2021/06/28 00:20:52;;;;;;;;;10.67;10.67;;;;;24.40;48.32;98549.31;4836739;28;106311;-84
2021/06/28 00:23:38;;;;;;;;;12.00;10.67;;;;;24.34;48.49;98554.06;4917351;28;101743;-86
2021/06/28 00:26:27;;;;;;;;;10.00;9.00;;;;;24.33;48.25;98546.06;4824560;28;102946;-85
2021/06/28 00:29:11;;;;;;;;;13.00;12.00;;;;;24.36;48.16;98556.56;4893332;28;101749;-85
2021/06/28 00:32:03;;;;;;;;;10.67;10.67;;;;;24.32;48.22;98549.94;4909722;28;102085;-85
2021/06/28 00:34:49;;;;;;;;;9.67;9.33;;;;;24.29;48.10;98548.59;4840684;28;102533;-85
2021/06/28 00:37:44;;;;;;;;;10.33;10.00;;;;;24.29;48.11;98556.06;4883725;28;103265;-85
2021/06/28 00:40:29;;;;;;;;;11.00;10.33;;;;;24.28;48.12;98548.88;4819376;28;101815;-84
2021/06/28 00:43:10;;;;;;;;;12.33;9.33;;;;;24.21;47.88;98549.22;4743221;28;105091;-85
2021/06/28 00:48:26;;;;;;;;;12.00;10.67;;;;;24.31;47.81;98564.91;5094571;23;102416;-86
2021/06/28 00:51:07;;;;;;;;;10.33;9.33;;;;;24.29;47.45;98561.59;4819138;28;103084;-86
2021/06/28 00:53:48;;;;;;;;;14.67;11.33;;;;;24.15;47.65;98547.59;4755218;29;107814;-85
2021/06/28 00:56:29;;;;;;;;;12.00;11.00;;;;;24.25;47.62;98566.88;4809777;28;103056;-86
2021/06/28 00:59:10;;;;;;;;;9.67;9.67;;;;;24.21;47.41;98559.47;4825529;28;103062;-85
2021/06/28 01:04:37;;;;;;;;;9.00;8.67;;;;;24.23;47.54;98568.25;5096814;23;103388;-86
2021/06/28 01:07:18;;;;;;;;;11.67;11.33;;;;;24.19;47.57;98572.72;4847264;23;102841;-86
2021/06/28 01:10:06;;;;;;;;;10.33;10.33;;;;;24.09;47.62;98548.75;4903184;23;103053;-85
2021/06/28 01:12:52;;;;;;;;;7.67;7.67;;;;;24.15;47.41;98553.13;4820274;28;102531;-86
2021/06/28 01:15:39;;;;;;;;;10.67;9.33;;;;;24.16;47.32;98562.25;4938607;23;107181;-86
2021/06/28 01:21:10;;;;;;;;;12.33;11.67;;;;;24.09;47.21;98556.22;4918887;23;103294;-87
2021/06/28 01:23:58;;;;;;;;;9.33;9.00;;;;;24.06;47.38;98546.56;4857183;28;101387;-87
2021/06/28 01:26:46;;;;;;;;;8.67;8.67;;;;;24.07;47.10;98562.03;4969423;23;106275;-86
2021/06/28 01:29:34;;;;;;;;;10.00;8.00;;;;;24.05;47.08;98560.66;4851413;28;101319;-86
2021/06/28 01:32:24;;;;;;;;;12.00;9.00;;;;;24.06;46.98;98563.13;4821495;28;102576;-85
2021/06/28 01:35:16;;;;;;;;;11.33;9.33;;;;;24.08;46.89;98566.44;4868400;28;102582;-86
2021/06/28 01:38:04;;;;;;;;;9.67;8.67;;;;;24.07;46.83;98570.31;4818873;28;106182;-86
2021/06/28 01:40:53;;;;;;;;;8.33;8.00;;;;;24.05;47.08;98566.19;5008624;23;102532;-86
2021/06/28 01:43:44;;;;;;;;;11.00;11.00;;;;;24.05;46.82;98577.22;5123189;23;103846;31
2021/06/28 01:46:30;;;;;;;;;9.33;9.00;;;;;24.00;46.71;98576.16;4799795;28;103421;-86
2021/06/28 01:49:16;;;;;;;;;8.33;8.00;;;;;24.00;46.44;98565.13;4832691;28;107791;-85
2021/06/28 01:51:58;;;;;;;;;10.00;9.00;;;;;23.87;46.54;98543.69;4881462;23;101619;-86
2021/06/28 01:54:28;;;;;;;;;9.33;8.00;;;;;23.93;46.77;98558.28;4998642;23;104034;-85
2021/06/28 01:57:09;;;;;;;;;9.00;8.33;;;;;23.91;46.54;98552.25;4911729;23;101768;-87
2021/06/28 01:59:50;;;;;;;;;10.00;10.00;;;;;23.95;46.56;98559.66;4916549;28;103562;-84
2021/06/28 02:02:31;;;;;;;;;12.00;10.33;;;;;23.94;46.54;98565.47;4968719;23;104170;-85
2021/06/28 02:05:12;;;;;;;;;7.67;7.67;;;;;23.83;46.34;98548.13;4914839;28;102483;-86
2021/06/28 02:07:53;;;;;;;;;10.00;7.33;;;;;23.82;46.11;98546.47;4955599;23;102273;-85
2021/06/28 02:10:35;;;;;;;;;11.33;8.00;;;;;23.82;46.27;98545.69;5162560;23;103846;-84
2021/06/28 02:13:23;;;;;;;;;10.67;8.00;;;;;23.83;46.26;98559.19;4948693;23;102794;-86
2021/06/28 02:15:58;;;;;;;;;10.33;8.33;;;;;23.80;46.32;98557.00;4867107;28;101840;-85
2021/06/28 02:18:40;;;;;;;;;9.33;9.00;;;;;23.88;46.44;98578.47;4857390;28;101609;-85
2021/06/28 02:21:21;;;;;;;;;7.33;7.33;;;;;23.87;46.23;98568.53;4798369;28;109414;-85
2021/06/28 02:24:02;;;;;;;;;9.67;9.33;;;;;23.81;46.11;98563.34;5073791;23;102832;-85
2021/06/28 02:26:53;;;;;;;;;10.00;10.00;;;;;23.82;45.76;98560.28;5108411;23;102937;-87
2021/06/28 02:29:36;;;;;;;;;9.33;8.33;;;;;23.85;45.63;98572.72;4988871;23;102337;-86
2021/06/28 02:32:17;;;;;;;;;10.00;10.00;;;;;23.75;45.71;98546.00;4897903;28;107937;-85
2021/06/28 02:34:58;;;;;;;;;9.33;8.67;;;;;23.73;46.12;98539.91;5164580;23;102915;-86
2021/06/28 02:37:39;;;;;;;;;14.00;12.00;;;;;23.80;46.00;98558.94;4889689;28;103214;-86
2021/06/28 02:40:20;;;;;;;;;9.00;8.67;;;;;23.75;45.75;98546.00;4915139;28;102199;-85
2021/06/28 02:43:01;;;;;;;;;9.33;9.00;;;;;23.69;45.95;98541.63;4909097;28;103848;-86
2021/06/28 02:45:44;;;;;;;;;8.67;6.00;;;;;23.76;45.55;98558.69;4914739;28;104943;-86
2021/06/28 02:48:25;;;;;;;;;11.00;9.33;;;;;23.71;45.65;98555.16;4911038;28;101397;-86
2021/06/28 02:51:07;;;;;;;;;8.33;8.00;;;;;23.66;45.59;98541.38;4926866;28;101438;-86
2021/06/28 02:53:48;;;;;;;;;10.67;9.67;;;;;23.68;45.69;98551.03;4911731;28;107774;-85
2021/06/28 02:56:29;;;;;;;;;9.67;8.67;;;;;23.70;45.62;98551.56;4889871;28;102036;-86
2021/06/28 02:59:12;;;;;;;;;8.00;8.00;;;;;23.67;45.57;98552.13;5211527;23;103142;-86
2021/06/28 03:01:53;;;;;;;;;10.00;10.00;;;;;23.65;45.33;98554.34;4923664;23;102675;-84
2021/06/28 03:04:34;;;;;;;;;8.33;7.67;;;;;23.73;45.23;98563.97;4975315;23;103936;-84
2021/06/28 03:07:14;;;;;;;;;11.00;10.00;;;;;23.72;45.18;98556.81;4870809;23;102264;-81
2021/06/28 03:09:55;;;;;;;;;9.67;8.67;;;;;23.73;45.13;98559.25;4792069;28;101609;-85
2021/06/28 03:12:37;;;;;;;;;10.00;9.33;;;;;23.66;45.12;98546.88;4864546;28;102077;-85
2021/06/28 03:15:20;;;;;;;;;10.00;9.00;;;;;23.64;45.07;98555.44;4889764;28;108403;-85
2021/06/28 03:18:01;;;;;;;;;10.00;9.33;;;;;23.69;45.34;98560.94;4905646;28;102743;-84
2021/06/28 03:20:42;;;;;;;;;9.67;9.67;;;;;23.63;44.99;98541.97;4877509;28;102050;-85
2021/06/28 03:23:23;;;;;;;;;9.33;7.67;;;;;23.75;44.92;98562.56;4822029;28;102068;-84
2021/06/28 03:28:52;;;;;;;;;9.67;9.00;;;;;23.66;44.93;98542.19;4780129;23;102075;-86
2021/06/28 03:31:33;;;;;;;;;11.00;9.33;;;;;23.65;44.86;98545.25;4938626;23;101956;-85
2021/06/28 03:34:13;;;;;;;;;12.67;11.33;;;;;23.69;44.74;98552.66;4874463;28;102008;-85
2021/06/28 03:36:54;;;;;;;;;10.00;8.00;;;;;23.64;44.78;98547.16;4906814;23;103652;-85
2021/06/28 03:39:35;;;;;;;;;10.00;9.00;;;;;23.68;44.95;98550.19;4874205;28;101689;-86
2021/06/28 03:42:17;;;;;;;;;8.67;8.67;;;;;23.59;44.79;98538.13;4898774;28;101313;-86
2021/06/28 03:44:58;;;;;;;;;9.33;9.33;;;;;23.59;45.03;98546.41;4880552;23;102430;-85
2021/06/28 03:48:04;;;;;;;;;8.00;8.00;;;;;23.58;44.86;98539.22;4947630;23;105408;31
2021/06/28 03:50:46;;;;;;;;;9.00;8.33;;;;;23.62;44.53;98546.66;5060958;23;102410;-84
2021/06/28 03:56:33;;;;;;;;;11.00;11.00;;;;;23.53;44.92;98537.31;4744461;23;103088;-85
2021/06/28 03:59:14;;;;;;;;;13.33;10.67;;;;;23.51;44.92;98545.06;4860219;28;106285;-85
2021/06/28 04:01:55;;;;;;;;;8.67;8.67;;;;;23.52;44.98;98543.94;4855894;28;101482;-83
2021/06/28 04:04:36;;;;;;;;;8.00;8.00;;;;;23.47;45.09;98541.22;4888804;28;101883;-84
2021/06/28 04:07:17;;;;;;;;;7.00;6.67;;;;;23.56;45.16;98562.41;4866243;28;102123;-85
2021/06/28 04:10:06;;;;;;;;;8.00;8.00;;;;;23.57;44.94;98549.44;4866053;28;104907;-84
2021/06/28 04:12:48;;;;;;;;;11.00;9.33;;;;;23.53;44.99;98551.94;4873212;28;102431;-85
2021/06/28 04:15:31;;;;;;;;;10.00;9.33;;;;;23.53;44.89;98559.41;4881947;28;103992;-85
2021/06/28 04:18:13;;;;;;;;;9.00;7.67;;;;;23.56;45.03;98567.94;4865186;28;101328;-84
2021/06/28 04:20:55;;;;;;;;;7.67;7.67;;;;;23.58;44.94;98567.66;4829606;28;108221;-83
2021/06/28 04:23:36;;;;;;;;;10.00;8.00;;;;;23.58;45.01;98566.84;4846040;28;101922;-82
2021/06/28 04:26:20;;;;;;;;;11.33;9.00;;;;;23.55;45.12;98562.69;4859507;28;102123;-85
2021/06/28 04:29:02;;;;;;;;;10.00;8.00;;;;;23.57;44.65;98566.00;4877715;23;101948;-86
2021/06/28 04:31:43;;;;;;;;;8.33;7.67;;;;;23.48;44.72;98563.03;4873502;28;107972;-83
2021/06/28 04:34:24;;;;;;;;;11.00;11.00;;;;;23.57;44.83;98577.03;4867377;28;102025;-84
2021/06/28 04:37:06;;;;;;;;;8.67;8.67;;;;;23.55;44.47;98570.97;4881270;28;101811;-83
2021/06/28 04:39:47;;;;;;;;;11.00;10.00;;;;;23.55;44.94;98580.06;4878521;28;101506;-86
2021/06/28 04:42:28;;;;;;;;;9.00;7.67;;;;;23.50;44.98;98580.13;4876517;28;101816;-85
2021/06/28 04:47:44;;;;;;;;;10.67;10.67;;;;;23.43;44.91;98571.31;4894634;28;101883;-87
2021/06/28 04:50:25;;;;;;;;;12.00;9.33;;;;;23.44;45.37;98574.91;4938020;23;103660;-85
2021/06/28 04:53:06;;;;;;;;;9.33;8.67;;;;;23.44;45.98;98583.19;5138344;23;103878;-85
2021/06/28 04:55:47;;;;;;;;;9.33;8.00;;;;;23.46;46.20;98587.31;5082291;23;102910;-80
2021/06/28 04:58:43;;;;;;;;;12.67;10.33;;;;;23.47;46.40;98588.97;4877552;28;102503;-85
2021/06/28 05:01:25;;;;;;;;;13.33;11.33;;;;;23.40;46.80;98579.31;4595762;26;108215;-87
2021/06/28 05:04:06;;;;;;;;;13.33;11.33;;;;;23.47;47.14;98605.53;4882198;28;102375;-85
2021/06/28 05:06:49;;;;;;;;;9.67;9.67;;;;;23.35;46.93;98576.59;4879822;28;101849;-89
2021/06/28 05:09:30;;;;;;;;;10.67;10.67;;;;;23.41;47.11;98592.84;4843062;28;101414;-82
2021/06/28 05:12:12;;;;;;;;;13.33;11.67;;;;;23.43;46.92;98592.53;4899893;28;101439;-84
2021/06/28 05:14:53;;;;;;;;;13.33;12.00;;;;;23.39;46.58;98595.06;4893856;28;107819;-84
2021/06/28 05:17:34;;;;;;;;;12.67;11.00;;;;;23.41;46.84;98594.78;4904461;28;101765;-86
2021/06/28 05:20:15;;;;;;;;;13.00;12.00;;;;;23.43;46.61;98595.31;4890748;28;101945;-86
2021/06/28 05:22:55;;;;;;;;;11.00;10.33;;;;;23.41;46.38;98595.63;4846825;28;101798;-84
2021/06/28 05:25:36;;;;;;;;;11.67;10.00;;;;;23.44;46.47;98594.25;4915745;28;104110;-85
2021/06/28 05:28:17;;;;;;;;;9.67;8.67;;;;;23.52;46.30;98605.50;4908208;28;103189;-83
2021/06/28 05:30:58;;;;;;;;;10.00;9.67;;;;;23.51;46.32;98608.53;4826315;28;102324;-85
2021/06/28 05:33:39;;;;;;;;;11.67;11.00;;;;;23.45;46.30;98599.50;4904158;28;101863;-82
2021/06/28 05:36:21;;;;;;;;;10.00;10.00;;;;;23.54;46.15;98608.00;4899084;28;108370;-84
2021/06/28 05:39:03;;;;;;;;;11.33;10.00;;;;;23.46;46.16;98597.56;4896182;28;102722;-86
2021/06/28 05:41:43;;;;;;;;;10.33;9.33;;;;;23.44;46.24;98591.47;4891549;23;102569;-84
2021/06/28 05:44:12;;;;;;;;;11.33;10.33;;;;;23.49;46.26;98597.81;4860649;28;101761;-85
2021/06/28 05:46:53;;;;;;;;;11.33;10.33;;;;;23.48;46.41;98590.63;4906492;23;108352;-85
2021/06/28 05:49:34;;;;;;;;;11.67;10.00;;;;;23.43;46.11;98593.38;4881234;28;102240;-83
2021/06/28 05:52:17;;;;;;;;;12.33;11.33;;;;;23.48;46.41;98600.84;4907915;28;102161;-84
2021/06/28 05:54:58;;;;;;;;;12.00;11.00;;;;;23.50;46.54;98604.97;4852652;28;103614;-83
2021/06/28 05:57:39;;;;;;;;;12.00;11.00;;;;;23.43;46.48;98596.13;4911290;28;103796;-83
2021/06/28 06:00:08;;;;;;;;;11.00;11.00;;;;;23.44;46.37;98599.75;4896538;28;101688;-82
2021/06/28 06:02:50;;;;;;;;;11.00;10.00;;;;;23.44;46.75;98594.25;4905519;28;101956;-84
2021/06/28 06:05:30;;;;;;;;;11.33;11.00;;;;;23.36;46.85;98589.28;4911607;28;101940;-84
2021/06/28 06:08:11;;;;;;;;;10.67;9.67;;;;;23.37;46.97;98590.94;4926889;28;103604;-84
2021/06/28 06:11:02;;;;;;;;;11.33;10.00;;;;;23.47;46.82;98605.53;4914839;28;102004;-84
2021/06/28 06:13:45;;;;;;;;;10.00;9.67;;;;;23.47;46.84;98604.69;4885952;28;102021;-83
2021/06/28 06:16:26;;;;;;;;;13.00;12.00;;;;;23.42;46.99;98604.69;4908223;28;101399;-84
2021/06/28 06:19:07;;;;;;;;;9.67;9.00;;;;;23.48;46.78;98611.88;4899835;28;103727;-84
2021/06/28 06:21:48;;;;;;;;;10.67;8.67;;;;;23.50;47.16;98607.75;4893027;28;102487;-85
2021/06/28 06:24:29;;;;;;;;;9.00;9.00;;;;;23.55;46.87;98623.41;4873788;28;101755;-82
2021/06/28 06:27:10;;;;;;;;;11.00;10.00;;;;;23.54;47.25;98616.28;4904888;28;101702;-81
2021/06/28 06:29:51;;;;;;;;;10.00;9.00;;;;;23.49;47.37;98608.00;4923638;28;108043;-84
2021/06/28 06:32:32;;;;;;;;;12.00;10.33;;;;;23.56;47.40;98619.56;4919200;28;102426;-83
2021/06/28 06:35:13;;;;;;;;;6.00;6.00;;;;;23.53;47.36;98609.91;4865679;28;101766;-84
2021/06/28 06:37:56;;;;;;;;;11.67;10.67;;;;;23.58;47.42;98617.34;4866826;28;102388;-84
2021/06/28 06:40:37;;;;;;;;;8.67;8.67;;;;;23.53;47.22;98609.09;4897773;28;103815;-84
2021/06/28 06:43:17;;;;;;;;;10.00;9.67;;;;;23.59;47.60;98609.91;4902387;28;101740;-84
2021/06/28 06:45:59;;;;;;;;;10.00;8.67;;;;;23.63;47.31;98620.09;4910339;28;102586;-84
2021/06/28 06:48:40;;;;;;;;;9.33;8.33;;;;;23.59;47.24;98621.75;4902223;28;108203;-83
2021/06/28 06:51:20;;;;;;;;;9.00;9.00;;;;;23.64;47.22;98627.22;4906428;28;108331;-85
2021/06/28 06:54:01;;;;;;;;;9.33;9.00;;;;;23.64;47.39;98616.19;4893530;28;102569;-85
2021/06/28 06:56:42;;;;;;;;;8.33;7.67;;;;;23.72;47.28;98631.34;4910364;28;101197;-86
2021/06/28 06:59:23;;;;;;;;;10.33;9.00;;;;;23.68;47.31;98622.81;4892317;28;102551;-83
2021/06/28 07:02:05;;;;;;;;;9.33;9.33;;;;;23.61;47.08;98611.25;4894009;28;103874;-83
2021/06/28 07:04:46;;;;;;;;;10.00;10.00;;;;;23.76;47.11;98630.50;4902295;28;101623;-84
2021/06/28 07:07:27;;;;;;;;;10.67;9.67;;;;;23.70;47.23;98620.56;4895041;28;101320;-83
2021/06/28 07:10:12;;;;;;;;;8.33;8.33;;;;;23.77;47.03;98634.91;4876060;28;101679;-83
2021/06/28 07:12:53;;;;;;;;;10.67;10.00;;;;;23.72;47.09;98625.81;4893170;28;108319;-83
2021/06/28 07:15:34;;;;;;;;;7.33;7.33;;;;;23.77;47.24;98637.69;4890954;28;101757;-83
2021/06/28 07:18:15;;;;;;;;;9.00;9.00;;;;;23.75;47.28;98644.56;4927379;28;106134;-84
2021/06/28 07:20:56;;;;;;;;;10.67;9.67;;;;;23.79;47.36;98634.59;4885534;23;101732;-84
2021/06/28 07:23:26;;;;;;;;;11.00;10.00;;;;;23.83;47.51;98647.56;4877540;28;104390;-84
2021/06/28 07:26:07;;;;;;;;;9.00;9.00;;;;;23.83;47.45;98647.56;4884593;28;101740;-83
2021/06/28 07:28:48;;;;;;;;;5.33;5.00;;;;;23.75;47.14;98626.06;4889827;28;102702;-81
2021/06/28 07:31:28;;;;;;;;;10.33;10.00;;;;;23.76;47.23;98624.97;4883165;28;101474;-84
2021/06/28 07:34:10;;;;;;;;;8.67;8.67;;;;;23.83;47.08;98625.47;4831922;28;103691;-84
2021/06/28 07:36:51;;;;;;;;;9.33;9.33;;;;;23.88;47.30;98633.72;4880292;28;102242;-83
2021/06/28 07:39:32;;;;;;;;;9.67;9.67;;;;;23.87;47.36;98626.53;4811627;28;102433;-83
2021/06/28 07:42:13;;;;;;;;;12.00;10.00;;;;;23.86;47.42;98619.38;4874197;28;103852;-83
2021/06/28 07:44:40;;;;;;;;;10.67;8.33;;;;;23.79;47.40;98607.81;4893065;28;102183;-82
2021/06/28 07:47:21;;;;;;;;;8.67;7.67;;;;;23.80;47.32;98609.47;4895880;28;102128;-83
2021/06/28 07:49:50;;;;;;;;;10.33;10.33;;;;;23.87;47.20;98621.00;4884066;28;102326;-84
2021/06/28 07:52:31;;;;;;;;;10.33;8.33;;;;;23.89;47.27;98615.22;4902795;28;102772;-83
2021/06/28 07:55:12;;;;;;;;;10.67;8.67;;;;;23.84;47.78;98610.56;4877550;28;104623;-82
2021/06/28 07:57:53;;;;;;;;;10.00;8.33;;;;;23.90;47.61;98625.16;4903668;28;102000;-82
2021/06/28 08:00:21;;;;;;;;;10.00;9.00;;;;;23.84;47.38;98613.31;4910075;28;102338;-84
2021/06/28 08:03:03;;;;;;;;;10.33;10.33;;;;;23.86;47.48;98619.38;4817160;28;103859;-84
2021/06/28 08:05:43;;;;;;;;;8.00;7.67;;;;;23.92;47.46;98634.78;4851473;28;105391;-84
2021/06/28 08:08:24;;;;;;;;;9.67;8.67;;;;;23.97;47.52;98634.75;4841557;28;102356;-83
2021/06/28 08:11:07;;;;;;;;;8.00;8.00;;;;;23.97;47.62;98634.75;4880122;28;101676;-84
2021/06/28 08:13:50;;;;;;;;;9.67;9.33;;;;;23.97;47.33;98636.69;4869128;28;102926;-82
2021/06/28 08:16:30;;;;;;;;;7.00;7.00;;;;;23.99;47.63;98638.06;4855645;28;106783;-82
2021/06/28 08:18:58;;;;;;;;;8.33;8.33;;;;;23.96;47.31;98627.56;4875368;28;101956;-83
2021/06/28 08:21:34;;;;;;;;;9.33;9.33;;;;;23.92;47.75;98612.69;4893486;28;102465;-83
2021/06/28 08:24:16;;;;;;;;;7.67;7.67;;;;;23.92;47.70;98609.94;4873340;28;101712;-83
2021/06/28 08:26:51;;;;;;;;;8.00;8.00;;;;;24.01;47.71;98637.75;4884793;28;104010;-83
2021/06/28 08:29:32;;;;;;;;;8.67;8.33;;;;;23.98;47.74;98622.59;4886557;28;101642;-84
2021/06/28 08:32:13;;;;;;;;;8.00;8.00;;;;;23.96;47.60;98619.28;4872457;28;102165;-85
2021/06/28 08:34:55;;;;;;;;;10.67;9.33;;;;;23.97;47.74;98629.22;4878881;28;102551;-84
2021/06/28 08:37:36;;;;;;;;;9.00;9.00;;;;;24.07;47.65;98633.88;4895145;28;103715;-85
2021/06/28 08:40:17;;;;;;;;;8.33;7.33;;;;;24.10;47.71;98629.69;4903223;28;104053;-83
2021/06/28 08:42:58;;;;;;;;;9.67;8.67;;;;;24.01;47.51;98632.25;4874923;28;101971;-84
2021/06/28 08:45:42;;;;;;;;;8.67;8.67;;;;;24.02;47.81;98629.19;4881740;28;106302;-83
2021/06/28 08:48:11;;;;;;;;;9.33;9.33;;;;;24.08;48.01;98637.47;4873552;28;104541;-82
2021/06/28 08:50:53;;;;;;;;;7.67;7.00;;;;;24.01;48.05;98626.72;4869948;28;101745;-82
2021/06/28 08:53:34;;;;;;;;;9.33;9.33;;;;;24.05;47.46;98638.00;4815371;28;102402;-84
2021/06/28 08:56:15;;;;;;;;;10.00;9.00;;;;;24.06;47.60;98629.44;4875329;28;101971;-84
2021/06/28 08:58:58;;;;;;;;;7.00;7.00;;;;;24.13;47.87;98641.00;4860701;28;105116;-83
2021/06/28 09:01:39;;;;;;;;;7.67;7.33;;;;;24.17;47.73;98635.75;4861991;28;101855;-84
2021/06/28 09:04:07;;;;;;;;;9.33;8.33;;;;;24.18;47.70;98645.69;4903263;28;102110;-83
2021/06/28 09:06:40;;;;;;;;;9.33;8.67;;;;;24.15;47.74;98632.41;4876433;28;101765;-84
2021/06/28 09:09:22;;;;;;;;;10.00;9.33;;;;;24.12;47.73;98624.72;4894619;28;108792;-82
2021/06/28 09:12:04;;;;;;;;;8.33;8.00;;;;;24.22;47.82;98633.78;4816259;28;102133;-83
2021/06/28 09:14:55;;;;;;;;;7.67;7.67;;;;;24.21;47.92;98626.59;4898020;28;101691;-83
2021/06/28 09:17:38;;;;;;;;;8.33;7.00;;;;;24.23;47.50;98634.59;4821455;28;102672;-83
2021/06/28 09:20:21;;;;;;;;;8.33;8.33;;;;;24.19;47.78;98616.94;4892018;28;103600;-83
2021/06/28 09:23:02;;;;;;;;;8.33;8.00;;;;;24.22;47.92;98628.25;4886148;28;102110;-84
2021/06/28 09:25:52;;;;;;;;;7.67;7.67;;;;;24.26;47.90;98621.03;4894617;28;105356;-84
2021/06/28 09:28:37;;;;;;;;;8.00;6.67;;;;;24.29;47.84;98627.91;4884914;28;101670;-83
2021/06/28 09:31:04;;;;;;;;;9.33;8.33;;;;;24.26;47.75;98628.50;4890911;28;102491;-85
2021/06/28 09:34:02;;;;;;;;;7.33;7.33;;;;;24.30;47.88;98624.03;4877788;28;102747;-84
2021/06/28 09:36:30;;;;;;;;;7.67;7.67;;;;;24.23;47.79;98615.25;4842620;28;101810;-83
2021/06/28 09:38:59;;;;;;;;;8.67;8.67;;;;;24.28;47.96;98617.97;4861834;28;102850;-82
2021/06/28 09:41:40;;;;;;;;;6.00;6.00;;;;;24.30;47.73;98619.34;4869746;28;103871;-82
2021/06/28 09:44:21;;;;;;;;;7.00;7.00;;;;;24.34;47.88;98622.34;4870791;28;101864;-82
2021/06/28 09:47:23;;;;;;;;;8.00;8.00;;;;;24.35;47.67;98627.59;4892218;28;101922;-84
2021/06/28 09:50:15;;;;;;;;;10.00;7.00;;;;;24.27;47.64;98608.06;4868168;28;101316;-84
2021/06/28 09:52:56;;;;;;;;;8.33;8.33;;;;;24.29;47.79;98606.63;4872647;28;108047;-84
2021/06/28 09:55:39;;;;;;;;;8.33;7.33;;;;;24.35;47.96;98607.41;4869480;28;102753;-85
2021/06/28 09:58:22;;;;;;;;;7.00;6.00;;;;;24.34;47.99;98603.81;4876220;28;101788;-82
2021/06/28 10:01:06;;;;;;;;;8.33;8.33;;;;;24.29;47.76;98597.50;4877150;28;102089;-82
2021/06/28 10:03:51;;;;;;;;;7.67;6.67;;;;;24.35;47.82;98585.31;4891757;28;103915;-83
2021/06/28 10:06:32;;;;;;;;;7.67;7.00;;;;;24.39;47.69;98589.13;4867018;28;102662;-83
2021/06/28 10:09:15;;;;;;;;;7.67;6.33;;;;;24.35;47.64;98588.06;4875757;28;102414;-84
2021/06/28 10:11:59;;;;;;;;;6.67;6.00;;;;;24.45;47.92;98605.38;4869053;28;101687;-83
2021/06/28 10:14:40;;;;;;;;;9.00;9.00;;;;;24.36;47.72;98579.47;4860384;28;105120;-84
2021/06/28 10:17:21;;;;;;;;;8.00;8.00;;;;;24.47;47.92;98595.97;4893867;28;102787;-84
2021/06/28 10:20:04;;;;;;;;;6.00;5.33;;;;;24.45;47.88;98594.31;4881164;28;102212;-84
2021/06/28 10:22:45;;;;;;;;;7.33;7.00;;;;;24.49;47.96;98616.69;4858039;28;102170;-83
2021/06/28 10:25:27;;;;;;;;;9.67;7.00;;;;;24.49;47.87;98605.63;4879445;28;108085;-83
2021/06/28 10:28:07;;;;;;;;;6.00;6.00;;;;;24.48;47.90;98600.38;4795686;28;102656;-83
2021/06/28 10:30:49;;;;;;;;;8.00;7.00;;;;;24.45;47.60;98582.44;4878081;28;101601;-83
2021/06/28 10:33:17;;;;;;;;;6.00;6.00;;;;;24.42;47.84;98577.47;4890731;28;102239;-85
2021/06/28 10:35:46;;;;;;;;;7.67;7.00;;;;;24.55;47.83;98592.56;4870776;28;104277;-83
2021/06/28 10:38:46;;;;;;;;;7.67;7.00;;;;;24.48;47.71;98586.56;4868771;28;101450;-84
2021/06/28 10:41:34;;;;;;;;;7.00;7.00;;;;;24.50;47.86;98579.59;4868876;28;102813;-82
2021/06/28 10:44:16;;;;;;;;;6.33;5.00;;;;;24.59;47.91;98601.91;4893160;28;101656;-82
2021/06/28 10:46:57;;;;;;;;;6.33;5.67;;;;;24.58;47.94;98586.47;4874605;28;109621;-84
2021/06/28 10:49:45;;;;;;;;;7.67;7.67;;;;;24.57;47.81;98582.88;4877597;28;103180;-82
2021/06/28 10:52:38;;;;;;;;;8.33;7.00;;;;;24.53;47.93;98576.28;4866884;28;101721;-83
2021/06/28 10:55:23;;;;;;;;;6.67;6.67;;;;;24.54;47.90;98580.66;4889994;28;102001;-83
2021/06/28 10:58:25;;;;;;;;;8.00;7.00;;;;;24.63;47.85;98594.72;4887385;28;108270;-82
2021/06/28 11:01:09;;;;;;;;;8.33;7.67;;;;;24.65;47.82;98590.53;4825066;28;105058;-83
2021/06/28 11:04:11;;;;;;;;;9.33;7.00;;;;;24.57;47.89;98569.03;4885794;28;102078;-82
2021/06/28 11:06:52;;;;;;;;;6.67;6.00;;;;;24.54;47.87;98566.84;4860934;23;103909;-82
2021/06/28 11:09:34;;;;;;;;;8.00;6.67;;;;;24.60;47.92;98573.16;4878112;28;109708;-83
2021/06/28 11:12:17;;;;;;;;;8.00;6.33;;;;;24.61;47.85;98569.28;4811764;28;102333;-84
2021/06/28 11:15:19;;;;;;;;;6.33;6.33;;;;;24.55;48.06;98559.38;4864746;28;101911;-83
2021/06/28 11:18:00;;;;;;;;;6.67;6.67;;;;;24.56;48.07;98555.50;4861672;28;102692;-82
2021/06/28 11:20:37;;;;;;;;;7.67;7.33;;;;;24.60;48.01;98568.44;4849780;28;103080;-83
2021/06/28 11:23:10;;;;;;;;;5.67;5.33;;;;;24.61;47.88;98564.56;4855816;28;102059;-83
2021/06/28 11:25:52;;;;;;;;;6.00;6.00;;;;;24.68;47.73;98576.09;4874192;28;104449;-83
2021/06/28 11:28:37;;;;;;;;;6.00;5.33;;;;;24.68;48.06;98575.28;4873452;28;102001;-82
2021/06/28 11:31:24;;;;;;;;;7.33;7.00;;;;;24.65;48.10;98570.34;4862390;28;103763;-83
2021/06/28 11:34:05;;;;;;;;;6.33;6.33;;;;;24.58;48.04;98562.41;4841002;28;102626;-84
2021/06/28 11:36:46;;;;;;;;;6.33;6.00;;;;;24.69;47.69;98577.75;4848674;28;101392;-83
2021/06/28 11:39:28;;;;;;;;;6.67;5.67;;;;;24.67;47.83;98570.88;4857320;28;101975;-83
2021/06/28 11:42:20;;;;;;;;;7.00;5.33;;;;;24.62;48.00;98559.88;4856021;28;103854;-82
2021/06/28 11:45:09;;;;;;;;;9.33;7.00;;;;;24.70;47.81;98573.06;4855573;28;101704;-83
2021/06/28 11:47:56;;;;;;;;;7.00;7.00;;;;;24.62;47.93;98557.09;4850301;28;101775;-82
2021/06/28 11:50:38;;;;;;;;;6.67;6.67;;;;;24.72;48.19;98571.63;4825922;28;102646;-82
2021/06/28 11:53:19;;;;;;;;;6.00;5.33;;;;;24.69;47.83;98566.69;4867308;28;101807;-82
2021/06/28 11:56:00;;;;;;;;;6.67;5.67;;;;;24.67;47.99;98551.53;4841868;28;101909;-84
2021/06/28 11:58:41;;;;;;;;;5.67;4.67;;;;;24.66;48.07;98544.34;4850056;28;101294;-83
2021/06/28 12:01:23;;;;;;;;;6.00;6.00;;;;;24.71;47.93;98555.34;4841026;28;102588;-84
2021/06/28 12:04:06;;;;;;;;;7.00;6.33;;;;;24.74;47.86;98547.28;4850522;28;107961;-82
2021/06/28 12:06:49;;;;;;;;;7.00;6.00;;;;;24.74;47.95;98540.91;4810445;28;103111;-82
2021/06/28 12:09:35;;;;;;;;;7.33;7.00;;;;;24.65;48.12;98532.44;4828077;29;101974;-84
2021/06/28 12:12:16;;;;;;;;;6.00;6.00;;;;;24.74;47.66;98546.44;4840972;28;102257;-84
2021/06/28 12:14:59;;;;;;;;;7.00;6.33;;;;;24.72;48.02;98530.16;4838286;28;108658;-85
2021/06/28 12:17:39;;;;;;;;;8.00;7.00;;;;;24.70;48.17;98517.75;4858445;28;101924;-83
2021/06/28 12:20:07;;;;;;;;;5.67;5.67;;;;;24.77;47.96;98519.03;4843310;28;103008;-83
2021/06/28 12:22:50;;;;;;;;;5.50;5.00;;;;;24.80;47.89;98524.00;4855740;28;101401;-83
2021/06/28 12:25:20;;;;;;;;;6.33;6.33;;;;;24.83;47.95;98528.91;4849500;28;103014;-83
2021/06/28 12:28:01;;;;;;;;;5.67;5.00;;;;;24.73;47.99;98512.44;4850436;28;102502;-83
2021/06/28 12:30:41;;;;;;;;;6.00;6.00;;;;;24.84;47.75;98525.03;4843003;28;101996;-83
2021/06/28 12:33:23;;;;;;;;;7.67;6.67;;;;;24.88;47.97;98531.66;4858507;28;102640;-82
2021/06/28 12:36:03;;;;;;;;;6.67;6.33;;;;;24.84;47.61;98519.50;4815697;28;108138;-82
2021/06/28 12:38:44;;;;;;;;;6.00;6.00;;;;;24.91;47.88;98526.63;4842183;28;101733;-83
2021/06/28 12:41:26;;;;;;;;;7.67;6.67;;;;;24.93;48.07;98533.53;4841378;28;101779;-83
2021/06/28 12:44:07;;;;;;;;;8.33;7.33;;;;;24.91;47.90;98512.81;4800075;28;101730;-82